createdAt,value
2023-03-31T00:00:08.224Z,87.29
2023-03-31T00:01:08.140Z,87.29
2023-03-31T00:02:08.231Z,86.47
2023-03-31T00:03:08.156Z,86.88
2023-03-31T00:04:08.285Z,86.88
2023-03-31T00:05:08.071Z,87.08
2023-03-31T00:06:08.275Z,86.36
2023-03-31T00:07:08.063Z,86.26
2023-03-31T00:08:08.076Z,85.96
2023-03-31T00:09:09.594Z,86.16
2023-03-31T00:10:17.318Z,86.26
2023-03-31T00:11:08.981Z,86.36
2023-03-31T00:12:08.044Z,86.57
2023-03-31T00:13:08.003Z,86.77
2023-03-31T00:14:08.211Z,86.57
2023-03-31T00:15:07.970Z,86.16
2023-03-31T00:16:08.433Z,86.26
2023-03-31T00:17:07.959Z,86.16
2023-03-31T00:18:08.049Z,86.36
2023-03-31T00:19:07.905Z,86.57
2023-03-31T00:20:07.894Z,86.47
2023-03-31T00:21:07.873Z,86.77
2023-03-31T00:22:07.914Z,86.71
2023-03-31T00:23:07.877Z,87.02
2023-03-31T00:24:07.853Z,86.91
2023-03-31T00:25:07.820Z,87.23
2023-03-31T00:26:08.255Z,87.12
2023-03-31T00:27:07.839Z,87.32
2023-03-31T00:28:07.867Z,87.23
2023-03-31T00:29:07.814Z,87.02
2023-03-31T00:30:07.814Z,87.02
2023-03-31T00:31:07.768Z,86.91
2023-03-31T00:32:07.954Z,87.12
2023-03-31T00:33:07.800Z,86.91
2023-03-31T00:34:07.847Z,87.12
2023-03-31T00:35:07.711Z,87.23
2023-03-31T00:36:07.944Z,87.23
2023-03-31T00:37:07.698Z,87.32
2023-03-31T00:38:07.693Z,87.32
2023-03-31T00:39:07.678Z,87.43
2023-03-31T00:40:07.700Z,87.32
2023-03-31T00:41:07.649Z,87.32
2023-03-31T00:42:07.733Z,87.32
2023-03-31T00:43:07.621Z,87.32
2023-03-31T00:44:07.622Z,87.32
2023-03-31T00:45:07.601Z,87.32
2023-03-31T00:46:07.979Z,87.63
2023-03-31T00:47:07.606Z,87.53
2023-03-31T00:48:07.621Z,87.63
2023-03-31T00:49:07.550Z,87.84
2023-03-31T00:50:07.564Z,87.88
2023-03-31T00:51:07.530Z,87.98
2023-03-31T00:52:07.599Z,87.98
2023-03-31T00:53:07.530Z,88.18
2023-03-31T00:54:07.509Z,88.18
2023-03-31T00:55:07.489Z,88.08
2023-03-31T00:56:07.997Z,87.88
2023-03-31T00:57:07.552Z,87.98
2023-03-31T00:58:07.587Z,87.98
2023-03-31T00:59:07.507Z,87.98
2023-03-31T01:00:07.675Z,88.18
2023-03-31T01:01:07.463Z,88.18
2023-03-31T01:02:07.459Z,88.18
2023-03-31T01:03:07.509Z,88.18
2023-03-31T01:04:07.495Z,88.29
2023-03-31T01:05:07.378Z,88.18
2023-03-31T01:06:07.592Z,88.39
2023-03-31T01:07:07.369Z,88.39
2023-03-31T01:08:07.371Z,88.29
2023-03-31T01:09:07.343Z,88.29
2023-03-31T01:10:07.376Z,88.18
2023-03-31T01:11:07.320Z,88.18
2023-03-31T01:12:07.367Z,88.18
2023-03-31T01:13:07.296Z,88.18
2023-03-31T01:14:07.305Z,88.29
2023-03-31T01:15:07.279Z,88.29
2023-03-31T01:16:07.519Z,88.29
2023-03-31T01:17:07.775Z,88.29
2023-03-31T01:18:07.451Z,88.29
2023-03-31T01:19:07.234Z,88.29
2023-03-31T01:20:07.271Z,88.08
2023-03-31T01:21:07.214Z,88.18
2023-03-31T01:22:07.384Z,88.18
2023-03-31T01:23:07.194Z,88.18
2023-03-31T01:24:07.258Z,88.14
2023-03-31T01:25:07.182Z,88.04
2023-03-31T01:26:07.417Z,88.04
2023-03-31T01:27:07.165Z,87.94
2023-03-31T01:28:07.157Z,87.94
2023-03-31T01:29:07.137Z,87.84
2023-03-31T01:30:07.139Z,87.73
2023-03-31T01:31:07.179Z,87.94
2023-03-31T01:32:08.253Z,87.84
2023-03-31T01:33:07.149Z,87.84
2023-03-31T01:34:07.084Z,87.84
2023-03-31T01:35:07.058Z,87.84
2023-03-31T01:36:07.293Z,87.73
2023-03-31T01:37:07.106Z,87.73
2023-03-31T01:38:07.066Z,87.63
2023-03-31T01:39:07.135Z,87.63
2023-03-31T01:40:07.019Z,87.73
2023-03-31T01:41:06.989Z,87.63
2023-03-31T01:42:07.063Z,87.73
2023-03-31T01:43:07.015Z,87.73
2023-03-31T01:44:06.975Z,87.63
2023-03-31T01:45:06.958Z,87.73
2023-03-31T01:46:07.262Z,87.84
2023-03-31T01:47:06.981Z,87.73
2023-03-31T01:48:07.085Z,87.63
2023-03-31T01:49:06.902Z,87.63
2023-03-31T01:50:06.975Z,87.53
2023-03-31T01:51:06.891Z,87.43
2023-03-31T01:52:06.961Z,87.18
2023-03-31T01:53:06.881Z,86.98
2023-03-31T01:54:06.895Z,86.67
2023-03-31T01:55:06.844Z,86.88
2023-03-31T01:56:07.114Z,86.98
2023-03-31T01:57:06.854Z,87.08
2023-03-31T01:58:07.069Z,87.70
2023-03-31T01:59:06.797Z,88.10
2023-03-31T02:00:06.941Z,88.41
2023-03-31T02:01:06.776Z,88.71
2023-03-31T02:02:07.188Z,88.92
2023-03-31T02:03:06.824Z,89.26
2023-03-31T02:04:06.824Z,89.67
2023-03-31T02:05:06.752Z,89.58
2023-03-31T02:06:06.964Z,89.78
2023-03-31T02:07:06.781Z,89.78
2023-03-31T02:08:06.717Z,90.39
2023-03-31T02:09:06.693Z,90.59
2023-03-31T02:10:06.832Z,90.90
2023-03-31T02:11:06.662Z,91.00
2023-03-31T02:12:06.750Z,91.31
2023-03-31T02:13:06.648Z,91.82
2023-03-31T02:14:06.689Z,92.13
2023-03-31T02:15:06.632Z,91.20
2023-03-31T02:16:06.841Z,90.39
2023-03-31T02:17:06.649Z,90.29
2023-03-31T02:18:06.672Z,90.08
2023-03-31T02:19:06.579Z,90.29
2023-03-31T02:20:06.597Z,89.88
2023-03-31T02:21:06.548Z,89.88
2023-03-31T02:22:06.574Z,90.19
2023-03-31T02:23:06.550Z,90.29
2023-03-31T02:24:06.673Z,90.08
2023-03-31T02:25:06.524Z,90.08
2023-03-31T02:26:06.749Z,90.29
2023-03-31T02:27:06.497Z,90.59
2023-03-31T02:28:06.533Z,90.80
2023-03-31T02:29:06.518Z,91.00
2023-03-31T02:30:06.502Z,91.31
2023-03-31T02:31:06.516Z,91.35
2023-03-31T02:32:06.494Z,91.25
2023-03-31T02:33:06.458Z,91.46
2023-03-31T02:34:06.486Z,91.46
2023-03-31T02:35:06.405Z,91.25
2023-03-31T02:36:06.643Z,91.46
2023-03-31T02:37:06.421Z,91.56
2023-03-31T02:38:06.404Z,91.76
2023-03-31T02:39:06.421Z,91.56
2023-03-31T02:40:06.379Z,91.35
2023-03-31T02:41:06.363Z,91.35
2023-03-31T02:42:06.448Z,91.35
2023-03-31T02:43:06.333Z,91.46
2023-03-31T02:44:06.366Z,91.05
2023-03-31T02:45:06.304Z,90.94
2023-03-31T02:46:06.451Z,90.94
2023-03-31T02:47:06.298Z,91.05
2023-03-31T02:48:06.293Z,90.94
2023-03-31T02:49:06.299Z,91.15
2023-03-31T02:50:06.272Z,91.15
2023-03-31T02:51:06.229Z,91.25
2023-03-31T02:52:06.294Z,91.15
2023-03-31T02:53:06.252Z,91.25
2023-03-31T02:54:06.339Z,91.35
2023-03-31T02:55:06.207Z,91.76
2023-03-31T02:56:06.457Z,92.11
2023-03-31T02:57:06.289Z,92.42
2023-03-31T02:58:06.195Z,92.42
2023-03-31T02:59:06.150Z,92.52
2023-03-31T03:00:06.138Z,92.62
2023-03-31T03:01:06.143Z,92.52
2023-03-31T03:02:06.228Z,92.52
2023-03-31T03:03:06.185Z,92.52
2023-03-31T03:04:06.095Z,92.32
2023-03-31T03:05:06.151Z,92.32
2023-03-31T03:06:06.189Z,92.52
2023-03-31T03:07:06.070Z,92.52
2023-03-31T03:08:06.091Z,92.83
2023-03-31T03:09:06.043Z,93.03
2023-03-31T03:10:06.064Z,93.03
2023-03-31T03:11:06.020Z,93.03
2023-03-31T03:12:06.134Z,92.93
2023-03-31T03:13:06.003Z,92.72
2023-03-31T03:14:06.073Z,92.62
2023-03-31T03:15:06.012Z,92.52
2023-03-31T03:16:06.279Z,92.52
2023-03-31T03:17:05.975Z,92.97
2023-03-31T03:18:06.033Z,92.97
2023-03-31T03:19:05.929Z,92.42
2023-03-31T03:20:05.976Z,92.32
2023-03-31T03:21:05.964Z,91.91
2023-03-31T03:22:08.034Z,91.70
2023-03-31T03:23:05.884Z,91.39
2023-03-31T03:24:05.930Z,91.50
2023-03-31T03:25:05.876Z,91.09
2023-03-31T03:26:06.113Z,90.88
2023-03-31T03:27:05.879Z,90.99
2023-03-31T03:28:05.884Z,90.99
2023-03-31T03:29:05.845Z,90.99
2023-03-31T03:30:05.827Z,90.88
2023-03-31T03:31:05.881Z,90.78
2023-03-31T03:32:05.812Z,90.78
2023-03-31T03:33:05.887Z,90.88
2023-03-31T03:34:05.769Z,91.09
2023-03-31T03:35:05.777Z,90.99
2023-03-31T03:36:06.069Z,90.78
2023-03-31T03:37:05.759Z,90.78
2023-03-31T03:38:05.788Z,90.78
2023-03-31T03:39:05.733Z,90.78
2023-03-31T03:40:05.761Z,90.58
2023-03-31T03:41:05.699Z,90.68
2023-03-31T03:42:05.841Z,90.68
2023-03-31T03:43:05.705Z,90.37
2023-03-31T03:44:05.695Z,90.17
2023-03-31T03:45:05.687Z,90.17
2023-03-31T03:46:05.923Z,90.06
2023-03-31T03:47:05.750Z,90.06
2023-03-31T03:48:05.823Z,89.76
2023-03-31T03:49:05.726Z,89.61
2023-03-31T03:50:05.765Z,89.41
2023-03-31T03:51:05.695Z,89.11
2023-03-31T03:52:05.645Z,88.59
2023-03-31T03:53:05.561Z,88.59
2023-03-31T03:54:05.560Z,88.49
2023-03-31T03:55:05.607Z,88.18
2023-03-31T03:56:05.857Z,87.57
2023-03-31T03:57:05.987Z,87.37
2023-03-31T03:58:05.559Z,87.26
2023-03-31T03:59:05.498Z,86.85
2023-03-31T04:00:05.611Z,87.06
2023-03-31T04:01:05.481Z,86.96
2023-03-31T04:02:05.534Z,87.06
2023-03-31T04:03:05.601Z,86.85
2023-03-31T04:04:05.552Z,87.06
2023-03-31T04:05:05.461Z,86.85
2023-03-31T04:06:05.755Z,86.96
2023-03-31T04:07:05.425Z,87.16
2023-03-31T04:08:05.473Z,87.06
2023-03-31T04:09:05.404Z,87.16
2023-03-31T04:10:05.378Z,86.82
2023-03-31T04:11:05.374Z,86.91
2023-03-31T04:12:05.415Z,86.61
2023-03-31T04:13:05.341Z,86.71
2023-03-31T04:14:05.769Z,86.65
2023-03-31T04:15:05.324Z,86.30
2023-03-31T04:16:05.639Z,86.00
2023-03-31T04:17:05.368Z,85.69
2023-03-31T04:18:05.372Z,84.98
2023-03-31T04:19:05.290Z,84.67
2023-03-31T04:20:05.292Z,85.59
2023-03-31T04:21:05.307Z,85.89
2023-03-31T04:22:05.297Z,85.83
2023-03-31T04:23:05.236Z,85.94
2023-03-31T04:24:05.233Z,86.04
2023-03-31T04:25:05.215Z,86.24
2023-03-31T04:26:05.370Z,86.14
2023-03-31T04:27:05.278Z,85.42
2023-03-31T04:28:05.207Z,85.42
2023-03-31T04:29:05.166Z,85.42
2023-03-31T04:30:05.166Z,85.42
2023-03-31T04:31:05.165Z,85.73
2023-03-31T04:32:05.324Z,85.73
2023-03-31T04:33:05.145Z,85.42
2023-03-31T04:34:05.139Z,84.91
2023-03-31T04:35:05.123Z,84.71
2023-03-31T04:36:05.265Z,84.91
2023-03-31T04:37:05.129Z,85.02
2023-03-31T04:38:05.087Z,85.12
2023-03-31T04:39:05.068Z,84.71
2023-03-31T04:40:05.129Z,84.91
2023-03-31T04:41:05.032Z,84.09
2023-03-31T04:42:05.105Z,84.09
2023-03-31T04:43:05.021Z,84.20
2023-03-31T04:44:05.011Z,83.89
2023-03-31T04:45:04.984Z,84.00
2023-03-31T04:46:05.220Z,84.20
2023-03-31T04:47:04.996Z,84.50
2023-03-31T04:48:04.976Z,84.61
2023-03-31T04:49:04.942Z,84.71
2023-03-31T04:50:05.037Z,84.71
2023-03-31T04:51:04.936Z,84.81
2023-03-31T04:52:04.975Z,85.32
2023-03-31T04:53:04.905Z,85.22
2023-03-31T04:54:04.898Z,85.22
2023-03-31T04:55:04.892Z,84.61
2023-03-31T04:56:05.265Z,84.81
2023-03-31T04:57:04.924Z,85.02
2023-03-31T04:58:04.933Z,84.91
2023-03-31T04:59:04.865Z,84.71
2023-03-31T05:00:04.856Z,84.50
2023-03-31T05:01:04.882Z,84.50
2023-03-31T05:02:04.901Z,84.20
2023-03-31T05:03:04.863Z,84.20
2023-03-31T05:04:04.836Z,84.30
2023-03-31T05:05:04.802Z,84.50
2023-03-31T05:06:05.162Z,84.50
2023-03-31T05:07:04.790Z,84.50
2023-03-31T05:08:04.820Z,84.41
2023-03-31T05:09:04.733Z,84.41
2023-03-31T05:10:04.754Z,84.50
2023-03-31T05:11:04.713Z,84.41
2023-03-31T05:12:04.739Z,83.95
2023-03-31T05:13:04.690Z,84.41
2023-03-31T05:14:04.869Z,84.50
2023-03-31T05:15:04.677Z,84.61
2023-03-31T05:16:05.009Z,84.50
2023-03-31T05:17:04.774Z,84.91
2023-03-31T05:18:04.849Z,84.81
2023-03-31T05:19:04.635Z,85.22
2023-03-31T05:20:04.633Z,85.12
2023-03-31T05:21:04.613Z,84.81
2023-03-31T05:22:04.625Z,84.61
2023-03-31T05:23:04.608Z,84.61
2023-03-31T05:24:04.731Z,84.20
2023-03-31T05:25:04.594Z,84.41
2023-03-31T05:26:05.149Z,84.41
2023-03-31T05:27:04.556Z,84.41
2023-03-31T05:28:04.571Z,84.30
2023-03-31T05:29:04.521Z,84.20
2023-03-31T05:30:04.568Z,84.61
2023-03-31T05:31:04.549Z,84.20
2023-03-31T05:32:04.641Z,84.09
2023-03-31T05:33:04.520Z,83.89
2023-03-31T05:34:04.467Z,83.48
2023-03-31T05:35:04.489Z,82.77
2023-03-31T05:36:04.875Z,82.87
2023-03-31T05:37:04.458Z,83.18
2023-03-31T05:38:04.443Z,83.69
2023-03-31T05:39:04.413Z,84.09
2023-03-31T05:40:04.471Z,83.79
2023-03-31T05:41:04.395Z,84.00
2023-03-31T05:42:04.641Z,84.41
2023-03-31T05:43:04.372Z,83.38
2023-03-31T05:44:04.363Z,84.00
2023-03-31T05:45:04.936Z,83.59
2023-03-31T05:46:04.678Z,80.52
2023-03-31T05:47:04.338Z,81.20
2023-03-31T05:48:04.480Z,82.01
2023-03-31T05:49:04.306Z,80.18
2023-03-31T05:50:04.371Z,79.16
2023-03-31T05:51:04.306Z,79.05
2023-03-31T05:52:04.640Z,79.05
2023-03-31T05:53:04.258Z,79.16
2023-03-31T05:54:04.309Z,78.95
2023-03-31T05:55:04.257Z,78.95
2023-03-31T05:56:04.411Z,78.85
2023-03-31T05:57:04.315Z,78.03
2023-03-31T05:58:04.251Z,77.79
2023-03-31T05:59:05.298Z,77.83
2023-03-31T06:00:04.300Z,78.03
2023-03-31T06:01:04.295Z,78.23
2023-03-31T06:02:04.219Z,78.44
2023-03-31T06:03:04.233Z,78.75
2023-03-31T06:04:04.288Z,78.64
2023-03-31T06:05:04.129Z,79.25
2023-03-31T06:06:04.149Z,78.44
2023-03-31T06:07:04.141Z,78.95
2023-03-31T06:08:04.107Z,79.77
2023-03-31T06:09:04.082Z,78.95
2023-03-31T06:10:04.088Z,79.16
2023-03-31T06:11:04.294Z,79.36
2023-03-31T06:12:04.078Z,79.60
2023-03-31T06:13:04.042Z,79.39
2023-03-31T06:14:04.071Z,79.50
2023-03-31T06:15:04.066Z,79.60
2023-03-31T06:16:04.085Z,79.70
2023-03-31T06:17:04.035Z,79.80
2023-03-31T06:18:04.132Z,79.91
2023-03-31T06:19:04.041Z,79.91
2023-03-31T06:20:12.933Z,80.32
2023-03-31T06:21:05.285Z,79.91
2023-03-31T06:22:03.965Z,80.52
2023-03-31T06:23:03.927Z,80.52
2023-03-31T06:24:03.990Z,80.21
2023-03-31T06:25:03.915Z,80.52
2023-03-31T06:26:03.922Z,80.42
2023-03-31T06:27:04.022Z,80.21
2023-03-31T06:28:03.942Z,80.32
2023-03-31T06:29:03.930Z,80.11
2023-03-31T06:30:03.972Z,80.32
2023-03-31T06:31:04.192Z,79.60
2023-03-31T06:32:03.939Z,80.01
2023-03-31T06:33:03.950Z,80.52
2023-03-31T06:34:03.879Z,80.42
2023-03-31T06:35:03.809Z,80.52
2023-03-31T06:36:03.900Z,80.42
2023-03-31T06:37:03.855Z,79.70
2023-03-31T06:38:03.837Z,80.21
2023-03-31T06:39:03.835Z,79.80
2023-03-31T06:40:03.988Z,80.32
2023-03-31T06:41:04.070Z,80.32
2023-03-31T06:42:03.818Z,80.52
2023-03-31T06:43:03.776Z,80.73
2023-03-31T06:44:03.814Z,80.73
2023-03-31T06:45:03.841Z,80.83
2023-03-31T06:46:03.817Z,80.93
2023-03-31T06:47:03.789Z,81.03
2023-03-31T06:48:03.926Z,81.44
2023-03-31T06:49:03.711Z,81.44
2023-03-31T06:50:03.695Z,81.54
2023-03-31T06:51:03.672Z,81.44
2023-03-31T06:52:03.774Z,81.79
2023-03-31T06:53:03.657Z,81.54
2023-03-31T06:54:03.606Z,81.54
2023-03-31T06:55:03.636Z,81.44
2023-03-31T06:56:04.134Z,81.65
2023-03-31T06:57:03.826Z,81.34
2023-03-31T06:58:03.570Z,81.03
2023-03-31T06:59:03.641Z,80.83
2023-03-31T07:00:03.627Z,80.93
2023-03-31T07:01:03.694Z,80.99
2023-03-31T07:02:03.692Z,81.10
2023-03-31T07:03:03.736Z,81.10
2023-03-31T07:04:03.593Z,80.89
2023-03-31T07:05:03.614Z,80.99
2023-03-31T07:06:03.472Z,80.99
2023-03-31T07:07:03.465Z,81.10
2023-03-31T07:08:03.563Z,81.30
2023-03-31T07:09:03.428Z,81.51
2023-03-31T07:10:03.438Z,81.71
2023-03-31T07:11:03.527Z,80.79
2023-03-31T07:12:03.533Z,80.34
2023-03-31T07:13:05.609Z,80.14
2023-03-31T07:14:03.523Z,80.34
2023-03-31T07:15:03.420Z,80.34
2023-03-31T07:16:03.513Z,80.44
2023-03-31T07:17:03.382Z,80.24
2023-03-31T07:18:03.555Z,79.43
2023-03-31T07:19:03.441Z,79.43
2023-03-31T07:20:03.568Z,79.32
2023-03-31T07:21:05.713Z,79.52
2023-03-31T07:22:03.420Z,79.80
2023-03-31T07:23:03.375Z,79.90
2023-03-31T07:24:03.285Z,79.80
2023-03-31T07:25:03.254Z,79.28
2023-03-31T07:26:03.279Z,79.28
2023-03-31T07:27:03.353Z,79.49
2023-03-31T07:28:03.281Z,79.49
2023-03-31T07:29:03.373Z,79.49
2023-03-31T07:30:03.362Z,80.00
2023-03-31T07:31:03.479Z,80.10
2023-03-31T07:32:03.313Z,79.28
2023-03-31T07:33:03.287Z,79.28
2023-03-31T07:34:03.222Z,79.18
2023-03-31T07:35:03.163Z,78.94
2023-03-31T07:36:11.836Z,78.94
2023-03-31T07:37:04.223Z,79.45
2023-03-31T07:38:03.453Z,79.75
2023-03-31T07:39:03.188Z,79.35
2023-03-31T07:40:03.297Z,79.14
2023-03-31T07:41:08.996Z,79.11
2023-03-31T07:42:04.287Z,79.00
2023-03-31T07:43:03.123Z,78.97
2023-03-31T07:44:03.250Z,78.66
2023-03-31T07:45:03.102Z,77.64
2023-03-31T07:46:03.369Z,76.83
2023-03-31T07:47:03.046Z,77.95
2023-03-31T07:48:03.343Z,78.22
2023-03-31T07:49:03.014Z,77.30
2023-03-31T07:50:02.982Z,76.83
2023-03-31T07:51:03.040Z,77.20
2023-03-31T07:52:03.175Z,76.90
2023-03-31T07:53:02.944Z,77.34
2023-03-31T07:54:02.955Z,77.14
2023-03-31T07:55:02.969Z,77.24
2023-03-31T07:56:02.997Z,77.24
2023-03-31T07:57:02.996Z,77.91
2023-03-31T07:58:02.934Z,77.91
2023-03-31T07:59:02.872Z,78.73
2023-03-31T08:00:02.889Z,77.20
2023-03-31T08:01:03.024Z,77.40
2023-03-31T08:02:03.010Z,77.61
2023-03-31T08:03:02.914Z,77.00
2023-03-31T08:04:02.928Z,76.69
2023-03-31T08:05:02.834Z,77.00
2023-03-31T08:06:02.969Z,77.10
2023-03-31T08:07:02.798Z,77.51
2023-03-31T08:08:03.635Z,77.51
2023-03-31T08:09:03.404Z,76.79
2023-03-31T08:10:02.769Z,77.47
2023-03-31T08:11:02.785Z,77.47
2023-03-31T08:12:02.878Z,77.17
2023-03-31T08:13:03.022Z,77.17
2023-03-31T08:14:03.011Z,76.45
2023-03-31T08:15:02.794Z,76.45
2023-03-31T08:16:02.919Z,76.72
2023-03-31T08:17:02.710Z,75.81
2023-03-31T08:18:03.300Z,76.52
2023-03-31T08:19:02.653Z,76.52
2023-03-31T08:20:06.286Z,76.72
2023-03-31T08:21:03.947Z,76.11
2023-03-31T08:22:02.767Z,75.30
2023-03-31T08:23:02.644Z,75.60
2023-03-31T08:24:03.129Z,75.81
2023-03-31T08:25:02.588Z,75.91
2023-03-31T08:26:02.615Z,75.81
2023-03-31T08:27:02.618Z,76.11
2023-03-31T08:28:02.766Z,75.60
2023-03-31T08:29:02.595Z,75.20
2023-03-31T08:30:02.796Z,75.70
2023-03-31T08:31:02.521Z,75.81
2023-03-31T08:32:03.370Z,76.01
2023-03-31T08:33:02.856Z,74.99
2023-03-31T08:34:03.694Z,74.89
2023-03-31T08:35:02.498Z,74.79
2023-03-31T08:36:02.529Z,74.48
2023-03-31T08:37:04.521Z,74.58
2023-03-31T08:38:02.735Z,73.97
2023-03-31T08:39:02.498Z,73.84
2023-03-31T08:40:03.280Z,73.94
2023-03-31T08:41:02.478Z,73.43
2023-03-31T08:42:03.905Z,73.54
2023-03-31T08:43:02.406Z,73.54
2023-03-31T08:44:03.010Z,74.24
2023-03-31T08:45:02.384Z,73.54
2023-03-31T08:46:02.574Z,74.04
2023-03-31T08:47:02.370Z,73.09
2023-03-31T08:48:02.618Z,73.09
2023-03-31T08:49:02.324Z,72.48
2023-03-31T08:50:02.327Z,72.99
2023-03-31T08:51:02.322Z,73.09
2023-03-31T08:52:02.389Z,73.30
2023-03-31T08:53:02.287Z,73.26
2023-03-31T08:54:02.314Z,72.85
2023-03-31T08:55:02.305Z,72.99
2023-03-31T08:56:02.342Z,72.48
2023-03-31T08:57:02.314Z,72.48
2023-03-31T08:58:02.322Z,72.99
2023-03-31T08:59:02.272Z,72.78
2023-03-31T09:00:02.229Z,73.19
2023-03-31T09:01:02.269Z,74.38
2023-03-31T09:02:02.306Z,73.67
2023-03-31T09:03:04.360Z,72.34
2023-03-31T09:04:03.695Z,72.21
2023-03-31T09:05:02.185Z,72.08
2023-03-31T09:06:02.178Z,71.53
2023-03-31T09:07:02.164Z,70.04
2023-03-31T09:08:02.159Z,70.65
2023-03-31T09:09:02.123Z,71.67
2023-03-31T09:10:02.284Z,71.26
2023-03-31T09:11:02.118Z,71.73
2023-03-31T09:12:02.174Z,72.11
2023-03-31T09:13:02.168Z,71.57
2023-03-31T09:14:02.073Z,70.83
2023-03-31T09:15:02.267Z,69.10
2023-03-31T09:16:02.111Z,68.43
2023-03-31T09:17:02.123Z,68.63
2023-03-31T09:18:02.249Z,70.62
2023-03-31T09:19:02.078Z,69.31
2023-03-31T09:20:02.062Z,69.31
2023-03-31T09:21:02.107Z,68.70
2023-03-31T09:22:02.020Z,68.40
2023-03-31T09:23:02.004Z,69.20
2023-03-31T09:24:01.993Z,69.44
2023-03-31T09:25:01.956Z,69.34
2023-03-31T09:26:02.130Z,69.17
2023-03-31T09:27:02.014Z,70.18
2023-03-31T09:28:01.911Z,70.59
2023-03-31T09:29:02.072Z,68.87
2023-03-31T09:30:01.920Z,69.98
2023-03-31T09:31:02.061Z,69.37
2023-03-31T09:32:01.999Z,69.78
2023-03-31T09:33:01.952Z,69.44
2023-03-31T09:34:01.861Z,69.07
2023-03-31T09:35:01.863Z,69.64
2023-03-31T09:36:01.926Z,70.56
2023-03-31T09:37:02.001Z,68.43
2023-03-31T09:38:01.806Z,68.12
2023-03-31T09:39:01.805Z,67.82
2023-03-31T09:40:01.807Z,68.52
2023-03-31T09:41:01.838Z,68.12
2023-03-31T09:42:01.959Z,68.32
2023-03-31T09:43:01.787Z,68.12
2023-03-31T09:44:01.736Z,66.80
2023-03-31T09:45:01.761Z,67.51
2023-03-31T09:46:09.675Z,68.02
2023-03-31T09:47:02.848Z,66.19
2023-03-31T09:48:01.767Z,66.80
2023-03-31T09:49:01.704Z,66.77
2023-03-31T09:50:01.708Z,65.79
2023-03-31T09:51:01.692Z,65.66
2023-03-31T09:52:01.676Z,65.76
2023-03-31T09:53:01.669Z,65.56
2023-03-31T09:54:01.651Z,65.86
2023-03-31T09:55:01.633Z,66.09
2023-03-31T09:56:01.623Z,65.28
2023-03-31T09:57:01.648Z,66.50
2023-03-31T09:58:01.600Z,65.89
2023-03-31T09:59:01.584Z,66.80
2023-03-31T10:00:01.573Z,66.70
2023-03-31T10:01:01.678Z,66.23
2023-03-31T10:02:01.661Z,66.83
2023-03-31T10:03:01.599Z,66.94
2023-03-31T10:04:01.579Z,66.94
2023-03-31T10:05:01.519Z,66.23
2023-03-31T10:06:01.509Z,68.05
2023-03-31T10:07:01.528Z,70.08
2023-03-31T10:08:01.492Z,71.60
2023-03-31T10:09:01.490Z,69.91
2023-03-31T10:10:01.459Z,69.71
2023-03-31T10:11:01.455Z,69.30
2023-03-31T10:12:01.450Z,68.73
2023-03-31T10:13:01.427Z,68.83
2023-03-31T10:14:01.481Z,69.34
2023-03-31T10:15:01.415Z,69.74
2023-03-31T10:16:01.454Z,69.34
2023-03-31T10:17:01.443Z,68.93
2023-03-31T10:18:01.458Z,68.52
2023-03-31T10:19:01.368Z,68.73
2023-03-31T10:20:01.356Z,69.64
2023-03-31T10:21:01.349Z,69.54
2023-03-31T10:22:01.337Z,68.12
2023-03-31T10:23:01.673Z,68.12
2023-03-31T10:24:01.319Z,67.81
2023-03-31T10:25:01.368Z,68.42
2023-03-31T10:26:01.283Z,69.74
2023-03-31T10:27:01.318Z,70.35
2023-03-31T10:28:01.289Z,72.17
2023-03-31T10:29:01.260Z,74.41
2023-03-31T10:30:01.337Z,75.32
2023-03-31T10:31:01.422Z,75.76
2023-03-31T10:32:01.257Z,75.76
2023-03-31T10:33:08.404Z,75.60
2023-03-31T10:34:02.323Z,74.52
2023-03-31T10:35:01.228Z,74.21
2023-03-31T10:36:01.209Z,75.12
2023-03-31T10:37:01.177Z,75.26
2023-03-31T10:38:01.157Z,76.38
2023-03-31T10:39:01.163Z,76.48
2023-03-31T10:40:01.137Z,76.62
2023-03-31T10:41:01.232Z,78.76
2023-03-31T10:42:01.122Z,80.83
2023-03-31T10:43:01.127Z,82.29
2023-03-31T10:44:01.083Z,82.90
2023-03-31T10:45:01.080Z,83.15
2023-03-31T10:46:01.073Z,81.41
2023-03-31T10:47:01.180Z,82.94
2023-03-31T10:48:01.066Z,82.88
2023-03-31T10:49:01.072Z,84.31
2023-03-31T10:50:01.054Z,84.31
2023-03-31T10:51:01.021Z,85.94
2023-03-31T10:52:01.007Z,86.55
2023-03-31T10:53:01.025Z,87.37
2023-03-31T10:54:01.026Z,87.67
2023-03-31T10:55:00.976Z,88.32
2023-03-31T10:56:01.002Z,89.45
2023-03-31T10:57:01.093Z,89.69
2023-03-31T10:58:00.947Z,90.20
2023-03-31T10:59:05.982Z,90.10
2023-03-31T11:00:02.031Z,90.31
2023-03-31T11:01:00.904Z,90.51
2023-03-31T11:02:01.024Z,89.90
2023-03-31T11:03:01.111Z,90.51
2023-03-31T11:04:00.901Z,90.92
2023-03-31T11:05:00.968Z,91.22
2023-03-31T11:06:00.890Z,90.71
2023-03-31T11:07:00.852Z,90.41
2023-03-31T11:08:00.842Z,90.81
2023-03-31T11:09:00.825Z,90.92
2023-03-31T11:10:00.864Z,89.28
2023-03-31T11:11:00.815Z,88.78
2023-03-31T11:12:00.799Z,87.14
2023-03-31T11:13:00.869Z,86.73
2023-03-31T11:14:00.830Z,85.41
2023-03-31T11:15:00.808Z,85.21
2023-03-31T11:16:00.831Z,82.86
2023-03-31T11:17:00.771Z,84.18
2023-03-31T11:18:00.745Z,85.71
2023-03-31T11:19:00.732Z,83.16
2023-03-31T11:20:00.748Z,82.14
2023-03-31T11:21:00.840Z,81.02
2023-03-31T11:22:00.707Z,82.55
2023-03-31T11:23:00.678Z,83.63
2023-03-31T11:24:00.677Z,83.63
2023-03-31T11:25:00.709Z,82.71
2023-03-31T11:26:00.647Z,83.33
2023-03-31T11:27:00.676Z,82.27
2023-03-31T11:28:00.624Z,82.68
2023-03-31T11:29:00.615Z,82.68
2023-03-31T11:30:00.590Z,81.82
2023-03-31T11:31:00.590Z,82.64
2023-03-31T11:32:00.652Z,82.74
2023-03-31T11:33:00.630Z,81.31
2023-03-31T11:34:00.636Z,81.72
2023-03-31T11:35:00.666Z,80.80
2023-03-31T11:36:00.577Z,79.27
2023-03-31T11:37:00.529Z,79.89
2023-03-31T11:38:00.516Z,79.79
2023-03-31T11:39:00.501Z,79.85
2023-03-31T11:40:00.489Z,79.24
2023-03-31T11:41:00.476Z,79.75
2023-03-31T11:42:00.498Z,81.68
2023-03-31T11:43:00.454Z,81.07
2023-03-31T11:44:00.459Z,82.76
2023-03-31T11:45:00.431Z,83.68
2023-03-31T11:46:00.426Z,81.65
2023-03-31T11:47:00.524Z,81.04
2023-03-31T11:48:00.486Z,81.04
2023-03-31T11:49:00.415Z,80.52
2023-03-31T11:50:00.401Z,80.32
2023-03-31T11:51:00.392Z,80.52
2023-03-31T11:52:00.377Z,81.65
2023-03-31T11:53:00.377Z,82.35
2023-03-31T11:54:00.372Z,81.13
2023-03-31T11:55:02.780Z,81.60
2023-03-31T11:56:00.309Z,83.03
2023-03-31T11:57:00.375Z,82.82
2023-03-31T11:58:00.293Z,81.40
2023-03-31T11:59:00.309Z,83.13
2023-03-31T12:00:00.301Z,84.45
2023-03-31T12:01:03.131Z,84.97
2023-03-31T12:02:00.382Z,83.13
2023-03-31T12:03:00.303Z,81.20
2023-03-31T12:04:00.286Z,83.64
2023-03-31T12:05:00.213Z,82.73
2023-03-31T12:06:00.381Z,83.13
2023-03-31T12:07:02.297Z,83.44
2023-03-31T12:08:00.217Z,82.52
2023-03-31T12:09:00.208Z,81.91
2023-03-31T12:10:00.179Z,75.09
2023-03-31T12:11:00.146Z,71.60
2023-03-31T12:12:00.153Z,73.43
2023-03-31T12:13:02.477Z,72.21
2023-03-31T12:14:00.120Z,70.99
2023-03-31T12:15:00.134Z,71.30
2023-03-31T12:16:00.218Z,68.75
2023-03-31T12:17:00.121Z,69.97
2023-03-31T12:18:00.233Z,69.46
2023-03-31T12:19:00.101Z,70.07
2023-03-31T12:20:00.084Z,70.68
2023-03-31T12:21:00.054Z,72.31
2023-03-31T12:22:00.124Z,72.21
2023-03-31T12:23:00.024Z,71.30
2023-03-31T12:24:00.086Z,70.99
2023-03-31T12:25:00.003Z,71.30
2023-03-31T12:25:59.993Z,71.30
2023-03-31T12:26:59.988Z,70.89
2023-03-31T12:27:59.999Z,71.97
2023-03-31T12:29:00.013Z,70.18
2023-03-31T12:29:59.967Z,70.58
2023-03-31T12:30:59.984Z,71.30
2023-03-31T12:31:59.940Z,71.67
2023-03-31T12:32:59.934Z,71.67
2023-03-31T12:33:59.982Z,71.87
2023-03-31T12:34:59.913Z,72.69
2023-03-31T12:35:59.901Z,72.08
2023-03-31T12:36:59.874Z,72.28
2023-03-31T12:37:59.876Z,72.28
2023-03-31T12:38:59.856Z,72.75
2023-03-31T12:39:59.849Z,72.85
2023-03-31T12:40:59.833Z,73.46
2023-03-31T12:41:59.826Z,71.64
2023-03-31T12:42:59.831Z,72.14
2023-03-31T12:43:59.787Z,71.60
2023-03-31T12:44:59.842Z,72.01
2023-03-31T12:45:59.764Z,71.40
2023-03-31T12:46:59.866Z,72.31
2023-03-31T12:47:59.858Z,71.80
2023-03-31T12:48:59.751Z,72.58
2023-03-31T12:49:59.722Z,73.29
2023-03-31T12:50:59.741Z,72.14
2023-03-31T12:51:59.728Z,73.46